Time;durP1;ratioP1;P1;durP2;ratioP2;P2;SDS_P1;SDS_P2;PMS_P1;PMS_P2;Temp;Humidity;BMP_temperature;BMP_pressure;BME280_temperature;BME280_humidity;BME280_pressure;Samples;Min_cycle;Max_cycle;Signal;HPM_P1;HPM_P2
2023/06/20 00:00:37;;;;;;;6.93;4.95;;;20.60;1.00;;;;;;20435059;28;20266;-44
2023/06/20 00:10:58;;;;;;;8.50;4.68;;;20.70;1.00;;;;;;20430312;29;20964;-42
2023/06/20 00:21:25;;;;;;;7.43;4.50;;;20.60;1.00;;;;;;20426859;28;20043;-44
2023/06/20 00:31:47;;;;;;;8.48;4.32;;;20.50;1.00;;;;;;20425892;29;20031;-44
2023/06/20 00:42:18;;;;;;;7.05;4.60;;;20.50;1.00;;;;;;20429077;28;20144;-43
2023/06/20 00:52:40;;;;;;;9.90;4.90;;;20.40;1.00;;;;;;20430238;28;20589;-43
2023/06/20 01:03:06;;;;;;;7.95;4.93;;;20.40;1.00;;;;;;20425423;29;20035;-43
2023/06/20 01:13:49;;;;;;;6.45;3.90;;;20.40;1.00;;;;;;20437063;28;20054;-44
2023/06/20 01:24:25;;;;;;;8.55;4.35;;;20.40;1.00;;;;;;20423558;28;20452;-43
2023/06/20 01:34:56;;;;;;;6.47;4.00;;;20.40;1.00;;;;;;20432832;28;20054;-43
2023/06/20 01:45:20;;;;;;;8.23;4.28;;;20.30;1.00;;;;;;20430553;28;20459;-42
2023/06/20 01:55:42;;;;;;;6.80;4.22;;;20.30;1.00;;;;;;20427181;29;20074;-42
2023/06/20 02:06:05;;;;;;;6.82;3.83;;;20.30;1.00;;;;;;20427575;28;20058;-43
2023/06/20 02:16:27;;;;;;;6.53;4.22;;;20.30;1.00;;;;;;20432379;28;20707;-42
2023/06/20 02:26:51;;;;;;;5.80;3.42;;;20.20;1.00;;;;;;20443607;28;20046;-43
2023/06/20 02:37:13;;;;;;;5.50;3.17;;;20.20;1.00;;;;;;20440273;28;20492;-43
2023/06/20 02:47:53;;;;;;;6.93;4.35;;;20.20;1.00;;;;;;20436187;29;20055;-43
2023/06/20 02:58:17;;;;;;;7.55;3.92;;;20.20;1.00;;;;;;20444081;29;20274;-43
2023/06/20 03:08:42;;;;;;;8.30;4.40;;;20.20;1.00;;;;;;20437448;28;20046;-44
2023/06/20 03:19:03;;;;;;;6.82;4.07;;;20.10;1.00;;;;;;20451815;28;20062;-43
2023/06/20 03:29:25;;;;;;;6.82;3.80;;;20.10;1.00;;;;;;20433255;28;20736;-44
2023/06/20 03:39:46;;;;;;;6.75;3.97;;;20.10;1.00;;;;;;20441134;28;20105;-43
2023/06/20 03:50:07;;;;;;;6.65;4.20;;;20.00;1.00;;;;;;20428026;29;20055;-42
2023/06/20 04:00:30;;;;;;;5.18;3.58;;;20.00;1.00;;;;;;20437811;28;20054;-42
2023/06/20 04:10:51;;;;;;;6.03;3.97;;;20.00;1.00;;;;;;20434175;28;20047;-43
2023/06/20 04:21:13;;;;;;;5.80;3.95;;;20.00;1.00;;;;;;20435791;28;20035;-43
2023/06/20 04:31:34;;;;;;;7.63;4.28;;;20.00;1.00;;;;;;20450722;28;20480;-42
2023/06/20 04:41:55;;;;;;;9.32;5.40;;;20.00;1.00;;;;;;20452281;28;20039;-43
2023/06/20 04:52:17;;;;;;;7.35;4.25;;;20.10;1.00;;;;;;20427132;28;20125;-43
2023/06/20 05:02:42;;;;;;;7.45;4.20;;;20.10;1.00;;;;;;20427933;29;20035;-43
2023/06/20 05:13:03;;;;;;;9.00;3.90;;;20.10;1.00;;;;;;20442989;28;20057;-43
2023/06/20 05:23:26;;;;;;;8.40;4.60;;;20.30;1.00;;;;;;20432424;28;20044;-43
2023/06/20 05:33:47;;;;;;;8.10;5.20;;;20.40;1.00;;;;;;20424374;28;20070;-43
2023/06/20 05:44:09;;;;;;;7.32;4.45;;;20.60;1.00;;;;;;20425367;28;20946;-43
2023/06/20 05:54:30;;;;;;;8.68;6.03;;;20.70;1.00;;;;;;20430725;28;20705;-42
2023/06/20 06:04:51;;;;;;;7.03;4.65;;;20.90;1.00;;;;;;20437373;28;20307;-43
2023/06/20 06:15:13;;;;;;;7.95;5.18;;;21.00;1.00;;;;;;20451966;28;20373;-44
2023/06/20 06:25:34;;;;;;;6.75;4.90;;;21.30;1.00;;;;;;20458221;28;20058;-42
2023/06/20 06:35:56;;;;;;;7.53;4.90;;;21.60;1.00;;;;;;20446459;28;20036;-44
2023/06/20 06:46:17;;;;;;;8.77;5.75;;;22.00;1.00;;;;;;20448085;28;20058;-42
2023/06/20 06:56:38;;;;;;;9.40;5.70;;;22.30;1.00;;;;;;20447399;29;20043;-42
2023/06/20 07:07:00;;;;;;;7.20;5.45;;;22.40;1.00;;;;;;20449256;28;20043;-42
2023/06/20 07:17:24;;;;;;;12.68;6.47;;;22.60;1.00;;;;;;20431209;28;20035;-42
2023/06/20 07:27:45;;;;;;;18.42;7.85;;;22.80;1.00;;;;;;20447182;28;20039;-41
2023/06/20 07:38:07;;;;;;;12.65;7.72;;;22.90;1.00;;;;;;20428295;28;20073;-41
2023/06/20 07:48:29;;;;;;;15.00;8.25;;;23.00;1.00;;;;;;20444784;29;20143;-42
2023/06/20 07:58:51;;;;;;;10.10;7.10;;;23.50;1.00;;;;;;20447096;28;20047;-42
2023/06/20 08:09:12;;;;;;;13.88;7.63;;;23.90;1.00;;;;;;20448033;29;20031;-42
2023/06/20 08:19:34;;;;;;;10.38;7.93;;;24.00;1.00;;;;;;20438921;28;20404;-41
2023/06/20 08:29:55;;;;;;;12.40;9.40;;;24.20;1.00;;;;;;20436092;28;20291;-42
2023/06/20 08:40:16;;;;;;;11.95;8.05;;;24.50;1.00;;;;;;20445373;29;20043;-41
2023/06/20 08:50:38;;;;;;;9.88;6.90;;;24.70;1.00;;;;;;20440211;28;20050;-42
2023/06/20 09:00:59;;;;;;;7.53;5.85;;;25.10;1.00;;;;;;20443083;28;20035;-42
2023/06/20 09:11:24;;;;;;;9.68;6.82;;;25.40;1.00;;;;;;20432814;28;20039;-42
2023/06/20 09:21:46;;;;;;;9.88;6.78;;;25.60;1.00;;;;;;20431426;28;20038;-40
2023/06/20 09:32:19;;;;;;;7.25;5.18;;;26.00;1.00;;;;;;20443021;28;20046;-40
2023/06/20 09:42:42;;;;;;;6.55;4.95;;;26.40;1.00;;;;;;20453867;28;20047;-40
2023/06/20 09:53:17;;;;;;;4.95;3.67;;;26.70;1.00;;;;;;20453398;28;20070;-40
2023/06/20 10:03:38;;;;;;;6.40;2.83;;;27.00;1.00;;;;;;20441629;29;20581;-40
2023/06/20 10:14:00;;;;;;;8.43;3.95;;;27.40;1.00;;;;;;20444058;28;20557;-40
2023/06/20 10:24:25;;;;;;;7.07;3.95;;;27.50;1.00;;;;;;20442142;29;20035;-40
2023/06/20 10:34:52;;;;;;;8.50;6.13;;;27.70;1.00;;;;;;20453529;28;20047;-40
2023/06/20 10:45:23;;;;;;;;;;;28.30;1.00;;;;;;20451528;28;20153;-40
2023/06/20 10:55:44;;;;;;;7.95;4.90;;;28.40;1.00;;;;;;20431880;28;19949;-44
2023/06/20 11:06:05;;;;;;;7.82;5.75;;;28.50;1.00;;;;;;20452917;28;20066;-40
2023/06/20 11:16:27;;;;;;;5.88;4.35;;;28.70;1.00;;;;;;20446798;29;20752;-41
2023/06/20 11:26:49;;;;;;;5.38;4.50;;;28.70;1.00;;;;;;20443532;28;20479;-40
2023/06/20 11:37:13;;;;;;;5.72;4.45;;;28.50;1.00;;;;;;20434061;28;20040;-41
2023/06/20 11:47:34;;;;;;;5.78;3.22;;;28.60;1.00;;;;;;20413579;28;20126;-41
2023/06/20 11:57:55;;;;;;;4.35;2.50;;;28.50;1.00;;;;;;20427850;28;20042;-40
2023/06/20 12:08:17;;;;;;;3.72;2.75;;;29.20;1.00;;;;;;20431680;28;20098;-41
2023/06/20 12:18:39;;;;;;;4.00;2.63;;;29.50;1.00;;;;;;20426360;28;20043;-40
2023/06/20 12:29:00;;;;;;;3.42;2.17;;;29.90;1.00;;;;;;20413761;28;20399;-41
2023/06/20 12:39:21;;;;;;;4.07;2.30;;;30.20;1.00;;;;;;20421894;29;20054;-41
2023/06/20 12:49:43;;;;;;;3.30;2.40;;;29.80;1.00;;;;;;20425131;28;20051;-41
2023/06/20 13:00:05;;;;;;;4.43;2.50;;;29.70;1.00;;;;;;20420448;28;20038;-41
2023/06/20 13:10:28;;;;;;;4.18;2.70;;;30.00;1.00;;;;;;20423871;28;20050;-41
2023/06/20 13:20:50;;;;;;;3.53;2.80;;;30.20;1.00;;;;;;20422325;28;20035;-40
2023/06/20 13:31:11;;;;;;;4.05;2.53;;;30.30;1.00;;;;;;20409747;28;20043;-40
2023/06/20 13:41:33;;;;;;;3.70;1.98;;;30.20;1.00;;;;;;20421603;28;20050;-40
2023/06/20 13:51:54;;;;;;;4.25;2.28;;;29.90;1.00;;;;;;20422542;28;20562;-40
2023/06/20 14:02:16;;;;;;;3.83;2.05;;;29.70;1.00;;;;;;20416087;28;20046;-40
2023/06/20 14:12:37;;;;;;;10.45;2.50;;;29.80;1.00;;;;;;20422797;28;20118;-40
2023/06/20 14:22:58;;;;;;;4.00;2.30;;;29.60;1.00;;;;;;20433029;28;20039;-40
2023/06/20 14:33:20;;;;;;;3.03;2.00;;;29.40;1.00;;;;;;20425123;28;20043;-40
2023/06/20 14:43:41;;;;;;;2.42;1.58;;;29.10;1.00;;;;;;20417715;28;20078;-40
2023/06/20 14:54:02;;;;;;;3.35;2.00;;;28.90;1.00;;;;;;20437260;29;20043;-40
2023/06/20 15:04:24;;;;;;;11.07;3.30;;;28.70;1.00;;;;;;20408076;28;20039;-39
2023/06/20 15:14:45;;;;;;;8.90;2.05;;;28.60;1.00;;;;;;20425362;28;20050;-43
2023/06/20 15:25:07;;;;;;;4.53;2.38;;;23.40;1.00;;;;;;20427634;28;20044;-42
2023/06/20 15:35:28;;;;;;;6.95;3.60;;;21.40;8.50;;;;;;20422480;28;20095;-42
2023/06/20 15:45:50;;;;;;;7.75;3.28;;;20.90;99.90;;;;;;20410038;29;20063;-42
2023/06/20 15:56:12;;;;;;;3.70;2.08;;;20.80;99.90;;;;;;20431382;28;20070;-42
2023/06/20 16:06:33;;;;;;;6.55;2.33;;;20.50;99.90;;;;;;20418746;29;20062;-41
2023/06/20 16:16:54;;;;;;;4.00;2.38;;;20.50;99.90;;;;;;20426717;28;20453;-41
2023/06/20 16:27:16;;;;;;;5.18;2.47;;;20.50;99.90;;;;;;20433686;28;20701;-41
2023/06/20 16:37:37;;;;;;;5.85;2.60;;;20.40;99.90;;;;;;20423952;28;20043;-41
2023/06/20 16:47:59;;;;;;;3.63;2.58;;;20.40;99.90;;;;;;20426962;28;20054;-43
2023/06/20 16:58:20;;;;;;;4.45;2.83;;;20.30;99.90;;;;;;20429978;28;20221;-43
2023/06/20 17:08:41;;;;;;;5.50;3.22;;;20.00;99.90;;;;;;20421569;28;20054;-42
2023/06/20 17:19:03;;;;;;;4.60;3.22;;;20.00;99.90;;;;;;20429385;28;20066;-43
2023/06/20 17:29:24;;;;;;;6.30;3.65;;;20.20;99.90;;;;;;20411518;28;20054;-42
2023/06/20 17:39:45;;;;;;;7.68;3.80;;;20.30;99.90;;;;;;20423531;28;20447;-41
2023/06/20 17:50:08;;;;;;;10.20;3.70;;;20.30;99.90;;;;;;20435324;28;20512;-41
2023/06/20 18:00:30;;;;;;;6.18;4.18;;;20.40;99.90;;;;;;20397718;28;20074;-44
2023/06/20 18:10:52;;;;;;;7.60;4.38;;;20.40;99.90;;;;;;20432572;28;20114;-42
2023/06/20 18:21:13;;;;;;;6.88;4.63;;;20.30;99.90;;;;;;20422402;28;20066;-42
2023/06/20 18:31:34;;;;;;;7.32;4.88;;;20.30;99.90;;;;;;20435612;28;20396;-43
2023/06/20 18:41:56;;;;;;;8.52;4.53;;;20.30;99.90;;;;;;20415669;28;20054;-41
2023/06/20 18:52:17;;;;;;;6.30;3.65;;;20.40;99.90;;;;;;20428613;28;20119;-42
2023/06/20 19:02:38;;;;;;;5.15;3.47;;;20.30;99.90;;;;;;20414225;28;20067;-42
2023/06/20 19:13:01;;;;;;;4.95;3.47;;;20.20;99.90;;;;;;20419298;28;20435;-41
2023/06/20 19:23:22;;;;;;;5.53;3.97;;;20.20;99.90;;;;;;20421195;28;20418;-42
2023/06/20 19:33:45;;;;;;;6.22;4.70;;;20.00;99.90;;;;;;20434144;28;20035;-41
2023/06/20 19:44:08;;;;;;;8.98;5.40;;;20.00;99.90;;;;;;20430688;28;20071;-41
2023/06/20 19:54:29;;;;;;;8.05;6.28;;;19.90;99.90;;;;;;20415091;28;20086;-41
2023/06/20 20:04:51;;;;;;;9.98;8.30;;;19.90;99.90;;;;;;20403754;28;20047;-41
2023/06/20 20:15:12;;;;;;;11.07;7.53;;;19.80;99.90;;;;;;20434834;28;20225;-42
2023/06/20 20:25:34;;;;;;;11.13;8.50;;;19.70;99.90;;;;;;20428008;28;20074;-41
2023/06/20 20:35:55;;;;;;;10.98;8.23;;;19.70;99.90;;;;;;20427422;28;20043;-41
2023/06/20 20:46:19;;;;;;;18.20;10.02;;;19.70;99.90;;;;;;20419169;28;20765;-41
2023/06/20 20:56:41;;;;;;;13.75;9.77;;;19.70;99.90;;;;;;20437950;28;20559;-41
2023/06/20 21:07:03;;;;;;;19.50;13.27;;;19.70;99.90;;;;;;20430742;28;20264;-41
2023/06/20 21:17:24;;;;;;;16.35;13.15;;;19.60;99.90;;;;;;20442192;28;20054;-40
2023/06/20 21:27:45;;;;;;;17.77;13.57;;;19.60;99.90;;;;;;20440036;28;20058;-40
2023/06/20 21:38:09;;;;;;;18.80;14.65;;;19.60;99.90;;;;;;20403626;28;20067;-41
2023/06/20 21:48:31;;;;;;;20.95;15.10;;;19.60;99.90;;;;;;20423804;28;20582;-41
2023/06/20 21:58:52;;;;;;;23.98;16.70;;;19.70;99.90;;;;;;20393122;28;20586;-40
2023/06/20 22:09:13;;;;;;;24.17;17.30;;;19.60;99.90;;;;;;20422687;28;20075;-41
2023/06/20 22:19:35;;;;;;;19.40;15.18;;;19.60;99.90;;;;;;20424669;28;20050;-41
2023/06/20 22:29:56;;;;;;;20.33;14.98;;;19.60;99.90;;;;;;20432740;28;20043;-40
2023/06/20 22:40:17;;;;;;;20.73;15.30;;;19.50;99.90;;;;;;20425561;28;20039;-42
2023/06/20 22:50:39;;;;;;;22.02;15.98;;;19.40;99.90;;;;;;20422496;29;20069;-40
2023/06/20 23:01:00;;;;;;;26.23;16.75;;;19.40;99.90;;;;;;20408312;28;20071;-41
2023/06/20 23:11:23;;;;;;;26.23;18.15;;;19.30;99.90;;;;;;20425176;28;20031;-40
2023/06/20 23:21:45;;;;;;;34.65;22.60;;;19.30;99.90;;;;;;20426231;28;20050;-39
2023/06/20 23:32:06;;;;;;;45.63;28.00;;;19.30;99.90;;;;;;20428075;28;20074;-40
2023/06/20 23:42:28;;;;;;;43.70;26.85;;;19.30;99.90;;;;;;20419868;28;20050;-42
2023/06/20 23:52:52;;;;;;;43.15;27.50;;;19.30;99.90;;;;;;20417861;28;20077;-41
